Hebei Shijiazhuang — VRIS2 — position and weather

sailwx.info

Track history (hours):
 
Tides and Currents Weather Stations Pressure Air Temp Water Temp Dewpoint Dewpoint Depression Visibility Wind Speed Wind Dir Waves Ship Positions

Hebei Shijiazhuang

Last reported at 2017-Mar-05 23:15 UTC. Time now 2017-Apr-29 09:13 UTC.
Position N 38°19' E 121°27'.
Warning: this ship's position is 54 days out of date.

Length 235 m.

Type: Cargo ship. MMSI: 477899000.

Date/timePositionNaut miles runAvg speedWind from/ knotsBaromVisibWave heightAir tempDewpointWater temp
2017-Mar-05 23:15N 38°19' E 121°27'1014.0
2017-Mar-05 22:33N 38°24' E 121°17'1212.5
2017-Mar-05 21:33N 38°30' E 121°03'1211.9
2017-Mar-05 20:33N 38°35' E 120°50'1212.5
2017-Mar-05 19:34N 38°37' E 120°34'  
2017-Mar-01 06:33N 38°41' E 120°38'1010.1
2017-Mar-01 05:33N 38°40' E 120°51'1010.2
2017-Mar-01 04:33N 38°34' E 121°02'1111.4
2017-Mar-01 03:33N 38°28' E 121°14'1111.3
2017-Mar-01 02:33N 38°21' E 121°26'  
Track history (hours):
 
Tides and Currents Weather Stations Pressure Air Temp Water Temp Dewpoint Dewpoint Depression Visibility Wind Speed Wind Dir Waves Ship Positions

Hebei Shijiazhuang

Last reported at 2017-Mar-05 23:15 UTC. Time now 2017-Apr-29 09:13 UTC.
Position N 38°19' E 121°27'.
Warning: this ship's position is 54 days out of date.

Length 235 m.

Type: Cargo ship. MMSI: 477899000.

Date/timePositionNaut miles runAvg speedWind from/ knotsBaromVisibWave heightAir tempDewpointWater temp
2017-Mar-05 23:15N 38°19' E 121°27'1014.0
2017-Mar-05 22:33N 38°24' E 121°17'1212.5
2017-Mar-05 21:33N 38°30' E 121°03'1211.9
2017-Mar-05 20:33N 38°35' E 120°50'1212.5
2017-Mar-05 19:34N 38°37' E 120°34'  
2017-Mar-01 06:33N 38°41' E 120°38'1010.1
2017-Mar-01 05:33N 38°40' E 120°51'1010.2
2017-Mar-01 04:33N 38°34' E 121°02'1111.4
2017-Mar-01 03:33N 38°28' E 121°14'1111.3
2017-Mar-01 02:33N 38°21' E 121°26'  

Dump ship's entire track history